Cape Magnolia — 3FGP2 — position and weather

sailwx.info

Track history (hours):
 
Tides and Currents Weather Stations Pressure Air Temp Water Temp Dewpoint Dewpoint Depression Visibility Wind Speed Wind Dir Waves Ship Positions

Cape Magnolia

Last reported at 2018-May-15 14:09 UTC. Time now 2018-May-21 03:29 UTC.
Position N 33°12' E 132°01'.

Length 292 m; draft 10.1 m.

Type: Cargo ship. MMSI: 357427000.

Date/timePositionNaut miles runAvg speedWind from/ knotsBaromVisibWave heightAir tempDewpointWater temp
2018-May-15 14:09N 33°12' E 132°01'211.4
2018-May-15 14:00N 33°14' E 131°60'5 7.8
2018-May-15 13:24N 33°18' E 131°58'512.1
2018-May-15 13:00N 33°23' E 131°59'714.3
2018-May-15 12:30N 33°28' E 132°05'714.0
2018-May-15 12:00N 33°33' E 132°11'713.5
2018-May-15 11:30N 33°38' E 132°17'713.1
2018-May-15 11:00N 33°42' E 132°23'713.3
2018-May-15 10:30N 33°47' E 132°28'813.2
2018-May-15 09:53N 33°53' E 132°35'513.2
2018-May-15 09:30N 33°56' E 132°40'713.2
2018-May-15 09:00N 34°01' E 132°45'714.2
2018-May-15 08:30N 34°06' E 132°51'4311.0
2018-May-15 04:35N 34°20' E 133°40'  
2018-May-10 00:59N 34°23' E 133°50'812.4
2018-May-10 00:22N 34°25' E 133°59'611.6
2018-May-09 23:52N 34°26' E 134°06'611.8
2018-May-09 23:22N 34°25' E 134°13'411.5
2018-May-09 23:00N 34°24' E 134°18'611.3
2018-May-09 22:30N 34°26' E 134°24'611.8
2018-May-09 22:00N 34°28' E 134°31'612.6
2018-May-09 21:30N 34°31' E 134°38'612.8
2018-May-09 21:00N 34°33' E 134°45'714.1
2018-May-09 20:31N 34°36' E 134°53'714.1
2018-May-09 20:00N 34°37' E 135°02'612.0
2018-May-09 19:30N 34°34' E 135°08'3 5.2
2018-May-09 19:00N 34°31' E 135°08'3 6.6
2018-May-09 18:30N 34°28' E 135°06'611.4
2018-May-09 18:00N 34°23' E 135°03'713.2
2018-May-09 17:30N 34°17' E 134°59'612.5
2018-May-09 17:00N 34°11' E 134°60'4 8.7
2018-May-09 16:30N 34°07' E 134°60'510.9
2018-May-09 16:00N 34°01' E 134°59'5 9.1
2018-May-09 15:30N 33°57' E 134°58'5 9.2
2018-May-09 15:00N 33°52' E 134°57'4 8.7
2018-May-09 14:30N 33°48' E 134°58'4 9.0
2018-May-09 14:00N 33°44' E 134°60'6 9.0
2018-May-09 13:21N 33°38' E 135°01'4 9.2
2018-May-09 12:58N 33°35' E 135°02'4 9.0
2018-May-09 12:30N 33°31' E 135°04'6 9.5
2018-May-09 11:53N 33°25' E 135°06'11 9.1
2018-May-09 10:42N 33°16' E 135°12'74 7.4
2018-May-09 00:42N 33°31' E 136°39'8812.5
2018-May-08 17:36N 34°12' E 138°14'312.5
2018-May-08 17:20N 34°13' E 138°18'412.6
2018-May-08 17:00N 34°15' E 138°22'812.3
2018-May-08 16:21N 34°19' E 138°31'1312.0
2018-May-08 15:16N 34°25' E 138°45'412.2
2018-May-08 14:57N 34°27' E 138°49'512.0
2018-May-08 14:30N 34°30' E 138°54'611.5
2018-May-08 14:00N 34°33' E 139°00'611.5
2018-May-08 13:28N 34°38' E 139°05'711.2
2018-May-08 12:48N 34°44' E 139°10'311.2
2018-May-08 12:30N 34°46' E 139°13'611.1
2018-May-08 11:56N 34°50' E 139°19'510.7
2018-May-08 11:30N 34°53' E 139°23'510.7
2018-May-08 11:00N 34°57' E 139°28'510.9
2018-May-08 10:30N 35°00' E 139°33'611.7
2018-May-08 10:00N 35°03' E 139°39'611.6
2018-May-08 09:30N 35°07' E 139°44'611.1
2018-May-08 09:00N 35°13' E 139°46'612.1
2018-May-08 08:31N 35°18' E 139°44'612.3
2018-May-08 08:01N 35°24' E 139°43'713.7
2018-May-08 07:31N 35°29' E 139°50'612.6
2018-May-08 07:00N 35°32' E 139°56'5 9.8
2018-May-08 06:30N 35°34' E 140°02'4 7.0
2018-May-08 06:00N 35°35' E 140°06'1 1.5
2018-May-08 05:30N 35°35' E 140°06'0 0.2
2018-May-08 04:58N 35°35' E 140°06'0 0.0
2018-May-08 04:28N 35°35' E 140°06'0 0.0
2018-May-08 03:58N 35°35' E 140°06'0 0.0
2018-May-08 03:28N 35°35' E 140°06'0 0.0
2018-May-08 02:58N 35°35' E 140°06'0 0.0
2018-May-08 02:28N 35°35' E 140°06'0 0.0
2018-May-08 01:58N 35°35' E 140°06'0 0.0
2018-May-08 01:28N 35°35' E 140°06'0 0.0
2018-May-08 00:58N 35°35' E 140°06'0 0.1
2018-May-08 00:28N 35°35' E 140°06'0 0.1
2018-May-07 23:58N 35°35' E 140°06'0 0.0
2018-May-07 23:28N 35°35' E 140°06'0 0.0
2018-May-07 22:58N 35°35' E 140°06'0 0.0
2018-May-07 22:28N 35°35' E 140°06'0 0.0
2018-May-07 21:58N 35°35' E 140°06'0 0.0
2018-May-07 21:28N 35°35' E 140°06'0 0.0
2018-May-07 20:58N 35°35' E 140°06'0 0.0
2018-May-07 20:28N 35°35' E 140°06'0 0.0
2018-May-07 19:58N 35°35' E 140°06'0 0.0
2018-May-07 19:28N 35°35' E 140°06'0 0.0
2018-May-07 18:58N 35°35' E 140°06'0 0.1
2018-May-07 18:28N 35°35' E 140°06'0 0.1
2018-May-07 17:58N 35°35' E 140°06'0 0.0
2018-May-07 17:28N 35°35' E 140°06'0 0.0
2018-May-07 16:58N 35°35' E 140°06'0 0.0
2018-May-07 16:28N 35°35' E 140°06'0 0.0
2018-May-07 15:58N 35°35' E 140°06'0 0.0
2018-May-07 15:28N 35°35' E 140°06'0 0.0
2018-May-07 14:58N 35°35' E 140°06'0 0.0
2018-May-07 14:28N 35°35' E 140°06'0 0.0
2018-May-07 13:58N 35°35' E 140°06'0 0.0
2018-May-07 13:28N 35°35' E 140°06'0 0.0
2018-May-07 12:58N 35°35' E 140°06'0 0.0
2018-May-07 12:28N 35°35' E 140°06'0 0.0
2018-May-07 11:58N 35°35' E 140°06'0 0.0
2018-May-07 11:28N 35°35' E 140°06'0 0.0
2018-May-07 10:58N 35°35' E 140°06'0 0.0
2018-May-07 10:28N 35°35' E 140°06'0 0.0
2018-May-07 09:46N 35°35' E 140°06'0 0.0
2018-May-07 09:28N 35°35' E 140°06'0 0.0
2018-May-07 08:58N 35°35' E 140°06'0 0.0
2018-May-07 08:28N 35°35' E 140°06'0 0.0
2018-May-07 07:58N 35°35' E 140°06'0 0.0
2018-May-07 07:28N 35°35' E 140°06'0 0.0
2018-May-07 06:58N 35°35' E 140°06'0 0.0
2018-May-07 06:28N 35°35' E 140°06'0 0.0
2018-May-07 05:58N 35°35' E 140°06'0 0.0
2018-May-07 05:28N 35°35' E 140°06'0 0.0
2018-May-07 04:58N 35°35' E 140°06'0 0.0
2018-May-07 04:28N 35°35' E 140°06'0 0.0
2018-May-07 03:58N 35°35' E 140°06'0 0.0
2018-May-07 03:28N 35°35' E 140°06'0 0.0
2018-May-07 02:58N 35°35' E 140°06'0 0.0
2018-May-07 02:28N 35°35' E 140°06'0 0.0
2018-May-07 01:58N 35°35' E 140°06'0 0.0
2018-May-07 01:28N 35°35' E 140°06'0 0.0
2018-May-07 00:58N 35°35' E 140°06'0 0.0
2018-May-07 00:28N 35°35' E 140°06'0 0.0
2018-May-06 23:58N 35°35' E 140°06'0 0.0
2018-May-06 23:28N 35°35' E 140°06'0 0.0
2018-May-06 22:58N 35°35' E 140°06'0 0.1
2018-May-06 22:28N 35°35' E 140°06'0 0.1
2018-May-06 21:58N 35°35' E 140°06'0 0.0
2018-May-06 21:28N 35°35' E 140°06'0 0.0
2018-May-06 20:58N 35°35' E 140°06'0 0.0
2018-May-06 20:28N 35°35' E 140°06'0 0.0
2018-May-06 19:58N 35°35' E 140°06'0 0.0
2018-May-06 19:28N 35°35' E 140°06'0 0.0
2018-May-06 18:58N 35°35' E 140°06'0 0.0
2018-May-06 18:28N 35°35' E 140°06'0 0.0
2018-May-06 17:58N 35°35' E 140°06'0 0.0
2018-May-06 17:28N 35°35' E 140°06'0 0.0
2018-May-06 16:58N 35°35' E 140°06'0 0.0
2018-May-06 16:28N 35°35' E 140°06'0 0.0
2018-May-06 15:58N 35°35' E 140°06'0 0.0
2018-May-06 15:28N 35°35' E 140°06'0 0.0
2018-May-06 14:58N 35°35' E 140°06'0 0.0
2018-May-06 14:28N 35°35' E 140°06'0 0.0
2018-May-06 13:58N 35°35' E 140°06'0 0.1
2018-May-06 13:28N 35°35' E 140°06'0 0.1
2018-May-06 12:58N 35°35' E 140°06'0 0.0
2018-May-06 12:28N 35°35' E 140°06'0 0.0
2018-May-06 11:58N 35°35' E 140°06'0 0.0
2018-May-06 11:28N 35°35' E 140°06'0 0.0
2018-May-06 10:58N 35°35' E 140°06'0 0.0
2018-May-06 10:28N 35°35' E 140°06'0 0.0
2018-May-06 09:58N 35°35' E 140°06'0 0.0
2018-May-06 09:28N 35°35' E 140°06'0 0.0
2018-May-06 08:58N 35°35' E 140°06'0 0.1
2018-May-06 08:30N 35°35' E 140°06'1 1.2
2018-May-06 08:00N 35°35' E 140°06'3 5.5
2018-May-06 07:30N 35°35' E 140°03'4 9.0
2018-May-06 07:00N 35°32' E 139°58'1 2.8
2018-May-06 06:30N 35°32' E 139°56'0 0.0
2018-May-06 06:00N 35°32' E 139°56'0 0.0
2018-May-06 05:30N 35°32' E 139°56'0 0.0
2018-May-06 05:00N 35°32' E 139°56'0 0.1
2018-May-06 04:30N 35°32' E 139°56'0 0.0
2018-May-06 03:57N 35°32' E 139°56'0 0.0
2018-May-06 03:30N 35°32' E 139°56'0 0.1
2018-May-06 03:00N 35°32' E 139°56'0 0.1
2018-May-06 02:30N 35°32' E 139°56'0 0.1
2018-May-06 02:00N 35°32' E 139°56'0 0.1
2018-May-06 01:30N 35°32' E 139°56'0 0.0
2018-May-06 01:00N 35°32' E 139°56'0 0.1
2018-May-06 00:30N 35°32' E 139°56'0 0.0
2018-May-06 00:00N 35°32' E 139°56'0 0.0
2018-May-05 23:30N 35°32' E 139°56'0 0.0
2018-May-05 22:57N 35°32' E 139°56'0 0.0
2018-May-05 22:30N 35°32' E 139°56'0 0.0
2018-May-05 21:57N 35°32' E 139°56'0 0.0
2018-May-05 21:30N 35°32' E 139°56'0 0.0
2018-May-05 21:00N 35°32' E 139°56'0 0.0
2018-May-05 20:30N 35°32' E 139°56'0 0.0
2018-May-05 19:57N 35°32' E 139°56'0 0.1
2018-May-05 19:30N 35°32' E 139°56'0 0.1
2018-May-05 18:57N 35°32' E 139°56'0 0.0
2018-May-05 18:27N 35°32' E 139°56'0 0.0
2018-May-05 17:57N 35°32' E 139°56'0 0.0
2018-May-05 17:27N 35°32' E 139°56'0 0.0
2018-May-05 17:00N 35°32' E 139°56'0 0.0
2018-May-05 16:30N 35°32' E 139°56'0 0.1
2018-May-05 16:00N 35°32' E 139°56'0 0.1
2018-May-05 15:30N 35°32' E 139°56'0 0.1
2018-May-05 15:00N 35°32' E 139°56'0 0.1
2018-May-05 14:30N 35°32' E 139°56'  
Track history (hours):
 
Tides and Currents Weather Stations Pressure Air Temp Water Temp Dewpoint Dewpoint Depression Visibility Wind Speed Wind Dir Waves Ship Positions

Cape Magnolia

Last reported at 2018-May-15 14:09 UTC. Time now 2018-May-21 03:29 UTC.
Position N 33°12' E 132°01'.

Length 292 m; draft 10.1 m.

Type: Cargo ship. MMSI: 357427000.

Date/timePositionNaut miles runAvg speedWind from/ knotsBaromVisibWave heightAir tempDewpointWater temp
2018-May-15 14:09N 33°12' E 132°01'211.4
2018-May-15 14:00N 33°14' E 131°60'5 7.8
2018-May-15 13:24N 33°18' E 131°58'512.1
2018-May-15 13:00N 33°23' E 131°59'714.3
2018-May-15 12:30N 33°28' E 132°05'714.0
2018-May-15 12:00N 33°33' E 132°11'713.5
2018-May-15 11:30N 33°38' E 132°17'713.1
2018-May-15 11:00N 33°42' E 132°23'713.3
2018-May-15 10:30N 33°47' E 132°28'813.2
2018-May-15 09:53N 33°53' E 132°35'513.2
2018-May-15 09:30N 33°56' E 132°40'713.2
2018-May-15 09:00N 34°01' E 132°45'714.2
2018-May-15 08:30N 34°06' E 132°51'4311.0
2018-May-15 04:35N 34°20' E 133°40'  
2018-May-10 00:59N 34°23' E 133°50'812.4
2018-May-10 00:22N 34°25' E 133°59'611.6
2018-May-09 23:52N 34°26' E 134°06'611.8
2018-May-09 23:22N 34°25' E 134°13'411.5
2018-May-09 23:00N 34°24' E 134°18'611.3
2018-May-09 22:30N 34°26' E 134°24'611.8
2018-May-09 22:00N 34°28' E 134°31'612.6
2018-May-09 21:30N 34°31' E 134°38'612.8
2018-May-09 21:00N 34°33' E 134°45'714.1
2018-May-09 20:31N 34°36' E 134°53'714.1
2018-May-09 20:00N 34°37' E 135°02'612.0
2018-May-09 19:30N 34°34' E 135°08'3 5.2
2018-May-09 19:00N 34°31' E 135°08'3 6.6
2018-May-09 18:30N 34°28' E 135°06'611.4
2018-May-09 18:00N 34°23' E 135°03'713.2
2018-May-09 17:30N 34°17' E 134°59'612.5
2018-May-09 17:00N 34°11' E 134°60'4 8.7
2018-May-09 16:30N 34°07' E 134°60'510.9
2018-May-09 16:00N 34°01' E 134°59'5 9.1
2018-May-09 15:30N 33°57' E 134°58'5 9.2
2018-May-09 15:00N 33°52' E 134°57'4 8.7
2018-May-09 14:30N 33°48' E 134°58'4 9.0
2018-May-09 14:00N 33°44' E 134°60'6 9.0
2018-May-09 13:21N 33°38' E 135°01'4 9.2
2018-May-09 12:58N 33°35' E 135°02'4 9.0
2018-May-09 12:30N 33°31' E 135°04'6 9.5
2018-May-09 11:53N 33°25' E 135°06'11 9.1
2018-May-09 10:42N 33°16' E 135°12'74 7.4
2018-May-09 00:42N 33°31' E 136°39'8812.5
2018-May-08 17:36N 34°12' E 138°14'312.5
2018-May-08 17:20N 34°13' E 138°18'412.6
2018-May-08 17:00N 34°15' E 138°22'812.3
2018-May-08 16:21N 34°19' E 138°31'1312.0
2018-May-08 15:16N 34°25' E 138°45'412.2
2018-May-08 14:57N 34°27' E 138°49'512.0
2018-May-08 14:30N 34°30' E 138°54'611.5
2018-May-08 14:00N 34°33' E 139°00'611.5
2018-May-08 13:28N 34°38' E 139°05'711.2
2018-May-08 12:48N 34°44' E 139°10'311.2
2018-May-08 12:30N 34°46' E 139°13'611.1
2018-May-08 11:56N 34°50' E 139°19'510.7
2018-May-08 11:30N 34°53' E 139°23'510.7
2018-May-08 11:00N 34°57' E 139°28'510.9
2018-May-08 10:30N 35°00' E 139°33'611.7
2018-May-08 10:00N 35°03' E 139°39'611.6
2018-May-08 09:30N 35°07' E 139°44'611.1
2018-May-08 09:00N 35°13' E 139°46'612.1
2018-May-08 08:31N 35°18' E 139°44'612.3
2018-May-08 08:01N 35°24' E 139°43'713.7
2018-May-08 07:31N 35°29' E 139°50'612.6
2018-May-08 07:00N 35°32' E 139°56'5 9.8
2018-May-08 06:30N 35°34' E 140°02'4 7.0
2018-May-08 06:00N 35°35' E 140°06'1 1.5
2018-May-08 05:30N 35°35' E 140°06'0 0.2
2018-May-08 04:58N 35°35' E 140°06'0 0.0
2018-May-08 04:28N 35°35' E 140°06'0 0.0
2018-May-08 03:58N 35°35' E 140°06'0 0.0
2018-May-08 03:28N 35°35' E 140°06'0 0.0
2018-May-08 02:58N 35°35' E 140°06'0 0.0
2018-May-08 02:28N 35°35' E 140°06'0 0.0
2018-May-08 01:58N 35°35' E 140°06'0 0.0
2018-May-08 01:28N 35°35' E 140°06'0 0.0
2018-May-08 00:58N 35°35' E 140°06'0 0.1
2018-May-08 00:28N 35°35' E 140°06'0 0.1
2018-May-07 23:58N 35°35' E 140°06'0 0.0
2018-May-07 23:28N 35°35' E 140°06'0 0.0
2018-May-07 22:58N 35°35' E 140°06'0 0.0
2018-May-07 22:28N 35°35' E 140°06'0 0.0
2018-May-07 21:58N 35°35' E 140°06'0 0.0
2018-May-07 21:28N 35°35' E 140°06'0 0.0
2018-May-07 20:58N 35°35' E 140°06'0 0.0
2018-May-07 20:28N 35°35' E 140°06'0 0.0
2018-May-07 19:58N 35°35' E 140°06'0 0.0
2018-May-07 19:28N 35°35' E 140°06'0 0.0
2018-May-07 18:58N 35°35' E 140°06'0 0.1
2018-May-07 18:28N 35°35' E 140°06'0 0.1
2018-May-07 17:58N 35°35' E 140°06'0 0.0
2018-May-07 17:28N 35°35' E 140°06'0 0.0
2018-May-07 16:58N 35°35' E 140°06'0 0.0
2018-May-07 16:28N 35°35' E 140°06'0 0.0
2018-May-07 15:58N 35°35' E 140°06'0 0.0
2018-May-07 15:28N 35°35' E 140°06'0 0.0
2018-May-07 14:58N 35°35' E 140°06'0 0.0
2018-May-07 14:28N 35°35' E 140°06'0 0.0
2018-May-07 13:58N 35°35' E 140°06'0 0.0
2018-May-07 13:28N 35°35' E 140°06'0 0.0
2018-May-07 12:58N 35°35' E 140°06'0 0.0
2018-May-07 12:28N 35°35' E 140°06'0 0.0
2018-May-07 11:58N 35°35' E 140°06'0 0.0
2018-May-07 11:28N 35°35' E 140°06'0 0.0
2018-May-07 10:58N 35°35' E 140°06'0 0.0
2018-May-07 10:28N 35°35' E 140°06'0 0.0
2018-May-07 09:46N 35°35' E 140°06'0 0.0
2018-May-07 09:28N 35°35' E 140°06'0 0.0
2018-May-07 08:58N 35°35' E 140°06'0 0.0
2018-May-07 08:28N 35°35' E 140°06'0 0.0
2018-May-07 07:58N 35°35' E 140°06'0 0.0
2018-May-07 07:28N 35°35' E 140°06'0 0.0
2018-May-07 06:58N 35°35' E 140°06'0 0.0
2018-May-07 06:28N 35°35' E 140°06'0 0.0
2018-May-07 05:58N 35°35' E 140°06'0 0.0
2018-May-07 05:28N 35°35' E 140°06'0 0.0
2018-May-07 04:58N 35°35' E 140°06'0 0.0
2018-May-07 04:28N 35°35' E 140°06'0 0.0
2018-May-07 03:58N 35°35' E 140°06'0 0.0
2018-May-07 03:28N 35°35' E 140°06'0 0.0
2018-May-07 02:58N 35°35' E 140°06'0 0.0
2018-May-07 02:28N 35°35' E 140°06'0 0.0
2018-May-07 01:58N 35°35' E 140°06'0 0.0
2018-May-07 01:28N 35°35' E 140°06'0 0.0
2018-May-07 00:58N 35°35' E 140°06'0 0.0
2018-May-07 00:28N 35°35' E 140°06'0 0.0
2018-May-06 23:58N 35°35' E 140°06'0 0.0
2018-May-06 23:28N 35°35' E 140°06'0 0.0
2018-May-06 22:58N 35°35' E 140°06'0 0.1
2018-May-06 22:28N 35°35' E 140°06'0 0.1
2018-May-06 21:58N 35°35' E 140°06'0 0.0
2018-May-06 21:28N 35°35' E 140°06'0 0.0
2018-May-06 20:58N 35°35' E 140°06'0 0.0
2018-May-06 20:28N 35°35' E 140°06'0 0.0
2018-May-06 19:58N 35°35' E 140°06'0 0.0
2018-May-06 19:28N 35°35' E 140°06'0 0.0
2018-May-06 18:58N 35°35' E 140°06'0 0.0
2018-May-06 18:28N 35°35' E 140°06'0 0.0
2018-May-06 17:58N 35°35' E 140°06'0 0.0
2018-May-06 17:28N 35°35' E 140°06'0 0.0
2018-May-06 16:58N 35°35' E 140°06'0 0.0
2018-May-06 16:28N 35°35' E 140°06'0 0.0
2018-May-06 15:58N 35°35' E 140°06'0 0.0
2018-May-06 15:28N 35°35' E 140°06'0 0.0
2018-May-06 14:58N 35°35' E 140°06'0 0.0
2018-May-06 14:28N 35°35' E 140°06'0 0.0
2018-May-06 13:58N 35°35' E 140°06'0 0.1
2018-May-06 13:28N 35°35' E 140°06'0 0.1
2018-May-06 12:58N 35°35' E 140°06'0 0.0
2018-May-06 12:28N 35°35' E 140°06'0 0.0
2018-May-06 11:58N 35°35' E 140°06'0 0.0
2018-May-06 11:28N 35°35' E 140°06'0 0.0
2018-May-06 10:58N 35°35' E 140°06'0 0.0
2018-May-06 10:28N 35°35' E 140°06'0 0.0
2018-May-06 09:58N 35°35' E 140°06'0 0.0
2018-May-06 09:28N 35°35' E 140°06'0 0.0
2018-May-06 08:58N 35°35' E 140°06'0 0.1
2018-May-06 08:30N 35°35' E 140°06'1 1.2
2018-May-06 08:00N 35°35' E 140°06'3 5.5
2018-May-06 07:30N 35°35' E 140°03'4 9.0
2018-May-06 07:00N 35°32' E 139°58'1 2.8
2018-May-06 06:30N 35°32' E 139°56'0 0.0
2018-May-06 06:00N 35°32' E 139°56'0 0.0
2018-May-06 05:30N 35°32' E 139°56'0 0.0
2018-May-06 05:00N 35°32' E 139°56'0 0.1
2018-May-06 04:30N 35°32' E 139°56'0 0.0
2018-May-06 03:57N 35°32' E 139°56'0 0.0
2018-May-06 03:30N 35°32' E 139°56'0 0.1
2018-May-06 03:00N 35°32' E 139°56'0 0.1
2018-May-06 02:30N 35°32' E 139°56'0 0.1
2018-May-06 02:00N 35°32' E 139°56'0 0.1
2018-May-06 01:30N 35°32' E 139°56'0 0.0
2018-May-06 01:00N 35°32' E 139°56'0 0.1
2018-May-06 00:30N 35°32' E 139°56'0 0.0
2018-May-06 00:00N 35°32' E 139°56'0 0.0
2018-May-05 23:30N 35°32' E 139°56'0 0.0
2018-May-05 22:57N 35°32' E 139°56'0 0.0
2018-May-05 22:30N 35°32' E 139°56'0 0.0
2018-May-05 21:57N 35°32' E 139°56'0 0.0
2018-May-05 21:30N 35°32' E 139°56'0 0.0
2018-May-05 21:00N 35°32' E 139°56'0 0.0
2018-May-05 20:30N 35°32' E 139°56'0 0.0
2018-May-05 19:57N 35°32' E 139°56'0 0.1
2018-May-05 19:30N 35°32' E 139°56'0 0.1
2018-May-05 18:57N 35°32' E 139°56'0 0.0
2018-May-05 18:27N 35°32' E 139°56'0 0.0
2018-May-05 17:57N 35°32' E 139°56'0 0.0
2018-May-05 17:27N 35°32' E 139°56'0 0.0
2018-May-05 17:00N 35°32' E 139°56'0 0.0
2018-May-05 16:30N 35°32' E 139°56'0 0.1
2018-May-05 16:00N 35°32' E 139°56'0 0.1
2018-May-05 15:30N 35°32' E 139°56'0 0.1
2018-May-05 15:00N 35°32' E 139°56'0 0.1
2018-May-05 14:30N 35°32' E 139°56'  

Dump ship's entire track history